Time;durP1;ratioP1;P1;durP2;ratioP2;P2;SDS_P1;SDS_P2;PMS_P1;PMS_P2;Temp;Humidity;BMP_temperature;BMP_pressure;BME280_temperature;BME280_humidity;BME280_pressure;Samples;Min_cycle;Max_cycle;Signal;HPM_P1;HPM_P2
2022/08/26 00:01:58;;;;;;;;;;;;;;;29.62;37.74;94039.16;5016503;28;7448;-91
2022/08/26 00:04:26;;;;;;;;;;;;;;;29.63;37.69;94035.09;5023269;28;8568;-90
2022/08/26 00:06:54;;;;;;;;;;;;;;;29.60;37.52;94033.41;5049961;28;7145;-90
2022/08/26 00:09:21;;;;;;;;;;;;;;;29.60;37.24;94038.97;5016887;28;7116;-90
2022/08/26 00:11:51;;;;;;;;;;;;;;;29.59;37.61;94037.47;5034945;28;7266;-90
2022/08/26 00:14:21;;;;;;;;;;;;;;;29.58;37.77;94025.63;5017736;28;9103;-89
2022/08/26 00:16:48;;;;;;;;;;;;;;;29.59;37.96;94027.13;5016662;28;9045;-90
2022/08/26 00:19:15;;;;;;;;;;;;;;;29.59;37.59;94023.59;5015273;28;7457;-89
2022/08/26 00:21:41;;;;;;;;;;;;;;;29.58;37.05;94024.91;5024604;28;7079;-90
2022/08/26 00:24:09;;;;;;;;;;;;;;;29.57;37.23;94031.72;5024715;28;9015;-89
2022/08/26 00:26:35;;;;;;;;;;;;;;;29.56;38.00;94025.44;5028235;28;7054;-91
2022/08/26 00:29:04;;;;;;;;;;;;;;;29.55;37.97;94023.97;5022379;28;7270;-90
2022/08/26 00:31:32;;;;;;;;;;;;;;;29.56;36.92;94033.75;5020320;28;6855;-91
2022/08/26 00:34:04;;;;;;;;;;;;;;;29.54;37.70;94028.00;5028180;28;7265;-90
2022/08/26 00:36:32;;;;;;;;;;;;;;;29.53;38.12;94028.56;5022887;28;9039;-90
2022/08/26 00:39:03;;;;;;;;;;;;;;;29.55;37.15;94029.50;5036975;28;7247;-89
2022/08/26 00:41:29;;;;;;;;;;;;;;;29.56;37.73;94030.22;5020995;28;8761;-90
2022/08/26 00:43:58;;;;;;;;;;;;;;;29.57;37.63;94028.97;5051897;28;9032;-90
2022/08/26 00:46:33;;;;;;;;;;;;;;;29.56;37.03;94025.44;5036843;28;8778;-90
2022/08/26 00:49:10;;;;;;;;;;;;;;;29.57;37.02;94028.97;5036641;28;8795;-90
2022/08/26 00:51:46;;;;;;;;;;;;;;;29.55;36.86;94026.00;5028919;28;7033;-91
2022/08/26 00:54:16;;;;;;;;;;;;;;;29.50;37.47;94018.56;5018800;28;8855;-91
2022/08/26 00:56:57;;;;;;;;;;;;;;;29.53;37.49;94026.53;5021193;28;8793;-91
2022/08/26 00:59:25;;;;;;;;;;;;;;;29.52;37.99;94024.31;5026762;28;7223;-90
2022/08/26 01:01:52;;;;;;;;;;;;;;;29.53;37.43;94031.34;5020050;28;9035;-90
2022/08/26 01:04:21;;;;;;;;;;;;;;;29.51;36.89;94029.13;5026915;28;8738;-90
2022/08/26 01:06:51;;;;;;;;;;;;;;;29.49;37.18;94028.19;5022549;28;7348;-90
2022/08/26 01:09:23;;;;;;;;;;;;;;;29.53;37.99;94036.88;5020568;28;7233;-91
2022/08/26 01:11:56;;;;;;;;;;;;;;;29.50;37.30;94026.88;5028574;28;9112;-90
2022/08/26 01:14:31;;;;;;;;;;;;;;;29.52;37.96;94027.81;5025992;28;8918;-89
2022/08/26 01:17:01;;;;;;;;;;;;;;;29.50;37.74;94030.41;5019159;28;7322;-90
2022/08/26 01:19:36;;;;;;;;;;;;;;;29.49;37.38;94031.66;5025795;28;8882;-90
2022/08/26 01:22:32;;;;;;;;;;;;;;;29.50;37.17;94033.16;5020771;28;7303;-90
2022/08/26 01:25:03;;;;;;;;;;;;;;;29.47;37.00;94034.25;5035760;28;6869;-89
2022/08/26 01:27:32;;;;;;;;;;;;;;;29.48;37.74;94027.44;5019608;28;7318;-90
2022/08/26 01:30:05;;;;;;;;;;;;;;;29.49;37.12;94031.66;5018178;28;7266;-89
2022/08/26 01:32:35;;;;;;;;;;;;;;;29.47;37.37;94033.53;5020203;28;8943;-90
2022/08/26 01:35:01;;;;;;;;;;;;;;;29.44;37.83;94029.06;5036549;28;7358;-91
2022/08/26 01:37:36;;;;;;;;;;;;;;;29.48;37.65;94026.69;5018590;28;8913;-90
2022/08/26 01:40:10;;;;;;;;;;;;;;;29.47;37.37;94031.47;5025866;28;8939;-91
2022/08/26 01:42:40;;;;;;;;;;;;;;;29.46;37.69;94032.78;5038790;28;9098;-90
2022/08/26 01:45:17;;;;;;;;;;;;;;;29.44;37.33;94034.59;5027485;28;8598;-91
2022/08/26 01:47:53;;;;;;;;;;;;;;;29.45;37.15;94042.38;5035977;28;9109;-90
2022/08/26 01:50:29;;;;;;;;;;;;;;;29.45;37.20;94031.28;5019119;28;6872;-90
2022/08/26 01:53:08;;;;;;;;;;;;;;;29.44;37.62;94032.59;5035772;28;8768;-90
2022/08/26 01:55:38;;;;;;;;;;;;;;;29.45;37.10;94041.66;5018245;28;9001;-90
2022/08/26 01:58:14;;;;;;;;;;;;;;;29.45;37.91;94044.41;5017250;28;7088;-89
2022/08/26 02:00:41;;;;;;;;;;;;;;;29.44;37.35;94042.91;5018124;28;9073;-90
2022/08/26 02:03:20;;;;;;;;;;;;;;;29.43;37.50;94033.13;5018588;28;9007;-90
2022/08/26 02:06:02;;;;;;;;;;;;;;;29.43;37.97;94041.44;5018545;28;9391;-90
2022/08/26 02:08:42;;;;;;;;;;;;;;;29.41;37.46;94046.78;5020558;28;8778;-90
2022/08/26 02:11:09;;;;;;;;;;;;;;;29.41;37.25;94047.53;5019231;28;8782;-89
2022/08/26 02:13:50;;;;;;;;;;;;;;;29.40;37.18;94048.81;5035877;28;9000;-91
2022/08/26 02:16:23;;;;;;;;;;;;;;;29.39;37.64;94050.09;5017649;28;7273;-91
2022/08/26 02:18:55;;;;;;;;;;;;;;;29.40;37.11;94043.28;5018753;28;6869;-90
2022/08/26 02:21:26;;;;;;;;;;;;;;;29.38;37.43;94045.09;5051440;28;7124;-90
2022/08/26 02:23:52;;;;;;;;;;;;;;;29.40;37.99;94045.31;5035205;28;9027;-90
2022/08/26 02:26:24;;;;;;;;;;;;;;;29.35;37.60;94043.41;5035138;28;8017;-90
2022/08/26 02:28:57;;;;;;;;;;;;;;;29.38;37.26;94051.41;5025352;28;8738;-90
2022/08/26 02:31:28;;;;;;;;;;;;;;;29.35;37.44;94035.84;5018292;28;9255;-91
2022/08/26 02:33:54;;;;;;;;;;;;;;;29.37;37.54;94040.84;5034636;28;9141;-90
2022/08/26 02:36:28;;;;;;;;;;;;;;;29.39;37.16;94043.81;5024318;28;8618;-91
2022/08/26 02:38:55;;;;;;;;;;;;;;;29.36;37.37;94042.13;5017493;28;7088;-90
2022/08/26 02:41:21;;;;;;;;;;;;;;;29.33;37.75;94040.44;5035646;28;9185;-90
2022/08/26 02:43:47;;;;;;;;;;;;;;;29.36;37.50;94039.38;5050197;28;9273;-90
2022/08/26 02:46:15;;;;;;;;;;;;;;;29.35;37.71;94032.31;5025153;28;7478;-90
2022/08/26 02:48:44;;;;;;;;;;;;;;;29.34;37.50;94031.59;5034388;28;8793;-90
2022/08/26 02:51:12;;;;;;;;;;;;;;;29.35;37.88;94035.84;5024559;28;8603;-90
2022/08/26 02:53:42;;;;;;;;;;;;;;;29.30;37.54;94033.22;5025341;28;8769;-90
2022/08/26 02:56:08;;;;;;;;;;;;;;;29.32;37.60;94033.44;5016996;28;7032;-90
2022/08/26 02:58:38;;;;;;;;;;;;;;;29.35;37.50;94037.88;5017143;28;9024;-90
2022/08/26 03:01:05;;;;;;;;;;;;;;;29.34;37.76;94037.13;5019763;28;7127;-90
2022/08/26 03:03:32;;;;;;;;;;;;;;;29.35;37.82;94043.41;5034817;28;7610;-90
2022/08/26 03:06:00;;;;;;;;;;;;;;;29.33;37.06;94032.88;5025293;28;7040;-90
2022/08/26 03:08:28;;;;;;;;;;;;;;;29.32;37.64;94038.97;5031556;28;8728;-90
2022/08/26 03:10:54;;;;;;;;;;;;;;;29.31;37.24;94038.22;5024422;28;8809;-90
2022/08/26 03:13:22;;;;;;;;;;;;;;;29.32;37.54;94036.94;5033054;28;9117;-90
2022/08/26 03:15:48;;;;;;;;;;;;;;;29.33;37.43;94037.69;5033746;28;9072;-90
2022/08/26 03:18:22;;;;;;;;;;;;;;;29.29;37.08;94035.25;5032718;28;8778;-90
2022/08/26 03:20:50;;;;;;;;;;;;;;;29.32;37.65;94030.66;5025319;28;8796;-89
2022/08/26 03:23:16;;;;;;;;;;;;;;;29.32;38.12;94036.94;5051861;28;8877;-91
2022/08/26 03:25:47;;;;;;;;;;;;;;;29.30;37.76;94030.44;5024344;28;7459;-91
2022/08/26 03:28:15;;;;;;;;;;;;;;;29.30;37.92;94035.97;5033454;28;8759;-89
2022/08/26 03:30:44;;;;;;;;;;;;;;;29.29;37.71;94032.50;5032965;28;9118;-89
2022/08/26 03:33:17;;;;;;;;;;;;;;;29.29;37.24;94032.50;5024685;28;7270;-90
2022/08/26 03:35:51;;;;;;;;;;;;;;;29.30;37.53;94038.75;5026031;28;8653;-90
2022/08/26 03:38:23;;;;;;;;;;;;;;;29.30;37.61;94036.72;5033444;28;7273;-90
2022/08/26 03:40:51;;;;;;;;;;;;;;;29.29;37.50;94032.50;5023601;28;9057;-89
2022/08/26 03:43:17;;;;;;;;;;;;;;;29.28;38.01;94033.00;5025881;28;9053;-90
2022/08/26 03:45:46;;;;;;;;;;;;;;;29.28;37.56;94033.00;5017625;28;6872;-90
2022/08/26 03:48:15;;;;;;;;;;;;;;;29.29;37.25;94035.25;5016619;28;8740;-90
2022/08/26 03:50:41;;;;;;;;;;;;;;;29.26;37.85;94030.03;5035317;28;8680;-88
2022/08/26 03:53:10;;;;;;;;;;;;;;;29.28;37.60;94030.25;5018029;28;7143;-89
2022/08/26 03:55:37;;;;;;;;;;;;;;;29.26;37.33;94027.28;5018872;28;7066;-90
2022/08/26 03:58:05;;;;;;;;;;;;;;;29.28;37.54;94033.00;5019613;28;8781;-89
2022/08/26 04:00:36;;;;;;;;;;;;;;;29.25;37.42;94025.81;5029898;28;7577;-90
2022/08/26 04:03:02;;;;;;;;;;;;;;;29.26;37.55;94030.03;5039674;28;8826;-90
2022/08/26 04:05:32;;;;;;;;;;;;;;;29.26;37.47;94036.34;5020923;28;8760;-90
2022/08/26 04:07:58;;;;;;;;;;;;;;;29.27;37.64;94031.53;5029407;28;7266;-90
2022/08/26 04:10:26;;;;;;;;;;;;;;;29.26;37.87;94036.34;5019612;28;9044;-90
2022/08/26 04:12:52;;;;;;;;;;;;;;;29.24;37.38;94038.16;5027260;28;7044;-89
2022/08/26 04:15:19;;;;;;;;;;;;;;;29.26;37.85;94038.34;5026354;28;10013;-90
2022/08/26 04:17:49;;;;;;;;;;;;;;;29.24;37.54;94027.09;5036475;28;9256;-90
2022/08/26 04:20:18;;;;;;;;;;;;;;;29.25;37.81;94034.13;5026752;28;9112;-90
2022/08/26 04:22:46;;;;;;;;;;;;;;;29.21;37.71;94028.91;5037244;28;8768;-90
2022/08/26 04:25:12;;;;;;;;;;;;;;;29.21;37.37;94028.19;5027747;28;7427;-90
2022/08/26 04:27:43;;;;;;;;;;;;;;;29.24;38.08;94029.84;5028462;28;7077;-90
2022/08/26 04:30:10;;;;;;;;;;;;;;;29.22;37.82;94024.13;5028157;28;8692;-90
2022/08/26 04:32:36;;;;;;;;;;;;;;;29.22;37.57;94024.88;5035097;28;9057;-89
2022/08/26 04:35:03;;;;;;;;;;;;;;;29.21;37.88;94028.91;5027180;28;9805;-90
2022/08/26 04:37:32;;;;;;;;;;;;;;;29.23;37.47;94031.16;5022081;28;8912;-88
2022/08/26 04:40:00;;;;;;;;;;;;;;;29.21;37.41;94028.91;5038612;28;8787;-90
2022/08/26 04:42:32;;;;;;;;;;;;;;;29.20;37.79;94029.47;5031908;28;6880;-89
2022/08/26 04:45:00;;;;;;;;;;;;;;;29.17;37.71;94036.81;5042785;28;7229;-89
2022/08/26 04:47:26;;;;;;;;;;;;;;;29.14;37.52;94023.31;5036286;28;9076;-90
2022/08/26 04:49:56;;;;;;;;;;;;;;;29.20;38.24;94032.97;5017647;28;9199;-90
2022/08/26 04:52:25;;;;;;;;;;;;;;;29.21;37.81;94028.19;5019034;28;9011;-89
2022/08/26 04:54:53;;;;;;;;;;;;;;;29.16;38.08;94029.81;5019132;28;7059;-90
2022/08/26 04:57:24;;;;;;;;;;;;;;;29.16;37.63;94031.81;5025777;28;8722;-90
2022/08/26 04:59:53;;;;;;;;;;;;;;;29.14;37.31;94031.59;5035231;28;9055;-90
2022/08/26 05:02:20;;;;;;;;;;;;;;;29.11;38.06;94036.19;5032950;28;7243;-89
2022/08/26 05:04:46;;;;;;;;;;;;;;;29.14;37.76;94031.59;5026128;28;7358;-89
2022/08/26 05:07:13;;;;;;;;;;;;;;;29.10;38.14;94035.44;5020551;28;8761;-88
2022/08/26 05:09:46;;;;;;;;;;;;;;;29.10;37.72;94029.91;5021070;28;8958;-89
2022/08/26 05:12:12;;;;;;;;;;;;;;;29.10;37.86;94035.44;5020064;28;9152;-89
2022/08/26 05:14:40;;;;;;;;;;;;;;;29.12;37.85;94031.41;5027986;28;7530;-89
2022/08/26 05:17:12;;;;;;;;;;;;;;;29.13;37.46;94032.88;5019054;28;7355;-89
2022/08/26 05:19:38;;;;;;;;;;;;;;;29.11;37.78;94036.19;5020611;28;9132;-90
2022/08/26 05:22:06;;;;;;;;;;;;;;;29.10;38.11;94037.50;5034137;28;9022;-89
2022/08/26 05:24:35;;;;;;;;;;;;;;;29.09;38.01;94044.31;5018152;28;9329;-89
2022/08/26 05:27:08;;;;;;;;;;;;;;;29.09;38.38;94027.69;5033696;28;8848;-89
2022/08/26 05:29:34;;;;;;;;;;;;;;;29.14;37.92;94039.91;5019652;28;8680;-88
2022/08/26 05:32:00;;;;;;;;;;;;;;;29.12;38.33;94042.50;5032720;28;8836;-90
2022/08/26 05:34:27;;;;;;;;;;;;;;;29.10;38.13;94041.00;5047316;28;7302;-91
2022/08/26 05:36:53;;;;;;;;;;;;;;;29.15;37.82;94041.38;5014951;23;7076;-60
2022/08/26 05:39:20;;;;;;;;;;;;;;;29.17;37.84;94044.41;4991806;28;9849;-60
2022/08/26 05:41:46;;;;;;;;;;;;;;;29.17;37.84;94047.19;4975378;28;6965;-60
2022/08/26 05:44:17;;;;;;;;;;;;;;;29.16;37.97;94046.44;5008458;28;7378;-60
2022/08/26 05:46:48;;;;;;;;;;;;;;;29.15;38.17;94053.22;4991543;28;7348;-59
2022/08/26 05:49:22;;;;;;;;;;;;;;;29.13;37.76;94053.00;4990032;28;9420;-60
2022/08/26 05:52:01;;;;;;;;;;;;;;;29.14;38.43;94051.75;5007298;28;7454;-59
2022/08/26 05:54:31;;;;;;;;;;;;;;;29.12;38.00;94064.66;5001294;28;7209;-60
2022/08/26 05:56:57;;;;;;;;;;;;;;;29.12;38.44;94067.41;4985164;28;9459;-59
2022/08/26 05:59:24;;;;;;;;;;;;;;;29.12;38.37;94065.41;4984481;28;9117;-59
2022/08/26 06:01:49;;;;;;;;;;;;;;;29.10;37.96;94067.97;4982852;28;9670;-59
2022/08/26 06:04:20;;;;;;;;;;;;;;;29.07;37.74;94069.78;4984087;28;8898;-59
2022/08/26 06:06:46;;;;;;;;;;;;;;;29.12;37.69;94075.72;4986407;28;7361;-59
2022/08/26 06:09:12;;;;;;;;;;;;;;;29.10;37.79;94071.47;4985543;28;8205;-59
2022/08/26 06:11:38;;;;;;;;;;;;;;;29.12;37.72;94078.50;4984747;28;9388;-59
2022/08/26 06:14:07;;;;;;;;;;;;;;;29.13;37.92;94074.44;4982744;28;7178;-59
2022/08/26 06:16:42;;;;;;;;;;;;;;;29.12;37.55;94075.72;4989447;28;7432;-59
2022/08/26 06:19:22;;;;;;;;;;;;;;;29.08;38.60;94071.25;4993771;28;7387;-60
2022/08/26 06:21:50;;;;;;;;;;;;;;;29.08;39.37;94070.50;4987911;28;7408;-59
2022/08/26 06:27:08;;;;;;;;;;;;;;;29.06;38.93;94079.38;4991306;28;7580;-60
2022/08/26 06:29:40;;;;;;;;;;;;;;;29.03;39.01;94074.94;5007657;28;7238;-59
2022/08/26 06:32:17;;;;;;;;;;;;;;;28.99;38.40;94076.56;4993033;28;7390;-58
2022/08/26 06:34:50;;;;;;;;;;;;;;;28.99;38.96;94079.31;5004316;28;7320;-59
2022/08/26 06:37:18;;;;;;;;;;;;;;;28.98;38.60;94081.34;5007346;28;7579;-59
2022/08/26 06:39:46;;;;;;;;;;;;;;;28.97;38.91;94079.84;4987760;28;7130;-60
2022/08/26 06:42:12;;;;;;;;;;;;;;;28.97;38.84;94079.13;4984609;28;6972;-60
2022/08/26 06:44:45;;;;;;;;;;;;;;;28.99;39.27;94073.78;4988940;28;8207;-60
2022/08/26 06:47:20;;;;;;;;;;;;;;;29.00;38.72;94072.47;5006822;28;7113;-60
2022/08/26 06:49:50;;;;;;;;;;;;;;;28.99;39.66;94076.56;5008211;28;7271;-60
2022/08/26 06:52:51;;;;;;;;;;;;;;;29.01;39.66;94080.25;4990118;28;7277;-59
2022/08/26 06:55:21;;;;;;;;;;;;;;;29.01;39.95;94083.00;4945012;28;7312;-59
2022/08/26 06:57:47;;;;;;;;;;;;;;;29.01;40.04;94073.97;4948967;28;7300;-59
2022/08/26 07:00:32;;;;;;;;;;;;;;;29.00;39.61;94080.78;4944286;28;7219;-59
2022/08/26 07:03:07;;;;;;;;;;;;;;;29.01;40.51;94082.28;4955513;28;7515;-61
2022/08/26 07:05:50;;;;;;;;;;;;;;;29.00;40.36;94083.56;4934497;28;7430;-60
2022/08/26 07:08:28;;;;;;;;;;;;;;;28.98;40.72;94078.56;4948419;28;6992;-60
2022/08/26 07:11:17;;;;;;;;;;;;;;;28.99;40.80;94076.56;4955803;28;7004;-60
2022/08/26 07:13:57;;;;;;;;;;;;;;;28.98;40.68;94080.59;4955818;28;7278;-60
2022/08/26 07:16:32;;;;;;;;;;;;;;;28.99;41.07;94080.03;4955102;28;7081;-60
2022/08/26 07:19:01;;;;;;;;;;;;;;;28.99;40.58;94080.03;4955882;28;8456;-60
2022/08/26 07:21:31;;;;;;;;;;;;;;;28.96;40.98;94086.66;4929480;28;9085;-60
2022/08/26 07:23:59;;;;;;;;;;;;;;;28.93;40.86;94087.75;4955749;28;7159;-60
2022/08/26 07:26:38;;;;;;;;;;;;;;;28.89;40.57;94090.13;4950277;28;7387;-60
2022/08/26 07:29:05;;;;;;;;;;;;;;;28.88;40.25;94085.13;4949713;28;7952;-60
2022/08/26 07:31:40;;;;;;;;;;;;;;;28.86;40.56;94096.00;4966067;28;7056;-61
2022/08/26 07:34:08;;;;;;;;;;;;;;;28.85;40.52;94102.81;4987069;28;7171;-60
2022/08/26 07:36:36;;;;;;;;;;;;;;;28.84;40.27;94095.78;4993742;28;7228;-60
2022/08/26 07:39:05;;;;;;;;;;;;;;;28.82;40.87;94092.78;4988724;28;7225;-60
2022/08/26 07:41:31;;;;;;;;;;;;;;;28.81;40.54;94089.31;4986248;28;7616;-60
2022/08/26 07:43:58;;;;;;;;;;;;;;;28.80;40.30;94090.56;5003851;28;7405;-60
2022/08/26 07:46:24;;;;;;;;;;;;;;;28.79;40.41;94100.19;4984837;28;7181;-60
2022/08/26 07:48:50;;;;;;;;;;;;;;;28.78;43.71;94097.94;4985436;28;7555;-60
2022/08/26 07:51:23;;;;;;;;;;;;;;;28.80;42.66;94101.66;4992488;28;7276;-61
2022/08/26 07:53:53;;;;;;;;;;;;;;;28.82;42.34;94098.34;5000998;28;7434;-61
2022/08/26 07:56:33;;;;;;;;;;;;;;;28.83;42.20;94106.13;4990645;28;7393;-61
2022/08/26 07:59:03;;;;;;;;;;;;;;;28.84;42.49;94099.28;4992592;28;7956;-60
2022/08/26 08:01:30;;;;;;;;;;;;;;;28.83;41.87;94099.84;4990245;28;6990;-60
2022/08/26 08:04:03;;;;;;;;;;;;;;;28.83;41.88;94106.13;4977532;28;7157;-60
2022/08/26 08:06:42;;;;;;;;;;;;;;;28.86;42.09;94107.78;4981875;28;7328;-61
2022/08/26 08:09:14;;;;;;;;;;;;;;;28.84;42.44;94104.09;5008518;28;7850;-60
2022/08/26 08:11:51;;;;;;;;;;;;;;;28.86;42.38;94113.31;4977380;28;8986;-60
2022/08/26 08:14:47;;;;;;;;;;;;;;;28.84;41.66;94107.59;4989489;28;9673;-60
2022/08/26 08:17:17;;;;;;;;;;;;;;;28.83;41.94;94108.88;4950077;28;9492;-60
2022/08/26 08:19:44;;;;;;;;;;;;;;;28.85;41.62;94108.34;4952132;28;7272;-60
2022/08/26 08:22:10;;;;;;;;;;;;;;;28.86;41.23;94110.56;4937247;28;7715;-60
2022/08/26 08:24:45;;;;;;;;;;;;;;;28.88;41.03;94108.00;4939483;28;7390;-61
2022/08/26 08:27:21;;;;;;;;;;;;;;;28.89;40.98;94109.50;4942243;28;7199;-61
2022/08/26 08:29:48;;;;;;;;;;;;;;;28.89;41.59;94100.44;4948465;28;7302;-61
2022/08/26 08:32:29;;;;;;;;;;;;;;;28.91;41.54;94101.38;4935663;28;9945;-60
2022/08/26 08:34:56;;;;;;;;;;;;;;;28.91;40.74;94095.09;4952569;28;7215;-61
2022/08/26 08:37:22;;;;;;;;;;;;;;;28.93;40.69;94104.34;4953700;28;7246;-60
2022/08/26 08:39:51;;;;;;;;;;;;;;;28.92;40.68;94102.13;4953671;28;9681;-60
2022/08/26 08:42:26;;;;;;;;;;;;;;;28.95;41.15;94101.03;4937829;28;7405;-60
2022/08/26 08:44:59;;;;;;;;;;;;;;;28.95;40.54;94107.31;4951728;28;9738;-60
2022/08/26 08:47:35;;;;;;;;;;;;;;;28.98;41.12;94103.50;4954385;28;7012;-61
2022/08/26 08:50:16;;;;;;;;;;;;;;;28.99;41.02;94095.94;4935229;28;7209;-60
2022/08/26 08:52:59;;;;;;;;;;;;;;;29.00;41.15;94102.94;4952509;28;7594;-60
2022/08/26 08:55:55;;;;;;;;;;;;;;;29.01;40.65;94110.69;4991043;28;9241;-60
2022/08/26 08:58:48;;;;;;;;;;;;;;;29.04;40.30;94098.56;5008919;28;7056;-61
2022/08/26 09:01:36;;;;;;;;;;;;;;;29.04;40.56;94098.56;4988728;28;7227;-60
2022/08/26 09:04:37;;;;;;;;;;;;;;;29.03;40.74;94105.38;4993501;28;7202;-60
2022/08/26 09:07:17;;;;;;;;;;;;;;;29.02;40.63;94112.19;4989632;28;9174;-60
2022/08/26 09:09:58;;;;;;;;;;;;;;;29.01;40.49;94091.31;4985476;28;7221;-61
2022/08/26 09:12:42;;;;;;;;;;;;;;;29.01;41.12;94096.13;4972243;28;7243;-60
2022/08/26 09:15:38;;;;;;;;;;;;;;;29.00;40.11;94092.63;5011175;28;7632;-60
2022/08/26 09:18:26;;;;;;;;;;;;;;;29.00;40.47;94100.16;4987176;28;7204;-60
2022/08/26 09:21:29;;;;;;;;;;;;;;;28.99;40.69;94091.13;5008891;28;7526;-60
2022/08/26 09:24:06;;;;;;;;;;;;;;;28.99;40.46;94093.88;4969382;28;9193;-61
2022/08/26 09:26:55;;;;;;;;;;;;;;;29.04;40.48;94089.50;4948052;28;6985;-60
2022/08/26 09:29:39;;;;;;;;;;;;;;;29.03;41.09;94091.53;4952665;28;7241;-60
2022/08/26 09:32:34;;;;;;;;;;;;;;;29.04;41.01;94093.00;4936044;28;9365;-60
2022/08/26 09:35:26;;;;;;;;;;;;;;;29.05;40.51;94093.75;4924151;28;7687;-60
2022/08/26 09:37:52;;;;;;;;;;;;;;;29.07;40.53;94094.72;4924182;28;7514;-60
2022/08/26 09:40:21;;;;;;;;;;;;;;;29.09;40.08;94091.38;4926830;28;9465;-60
2022/08/26 09:43:09;;;;;;;;;;;;;;;29.10;39.99;94088.06;4923974;29;7381;-60
2022/08/26 09:45:53;;;;;;;;;;;;;;;29.10;40.94;94088.06;4926846;28;7194;-60
2022/08/26 09:48:42;;;;;;;;;;;;;;;29.13;40.67;94083.47;4924011;29;9296;-60
2022/08/26 09:51:53;;;;;;;;;;;;;;;29.16;40.84;94089.97;4913899;29;7187;-60
2022/08/26 09:54:39;;;;;;;;;;;;;;;29.15;41.03;94080.91;4894940;29;8612;-60
2022/08/26 09:57:20;;;;;;;;;;;;;;;29.15;40.63;94077.38;4887527;29;7249;-60
2022/08/26 09:59:48;;;;;;;;;;;;;;;29.13;40.43;94071.66;4935777;28;9449;-60
2022/08/26 10:02:41;;;;;;;;;;;;;;;29.10;40.88;94074.22;4913230;29;8694;-60
2022/08/26 10:05:16;;;;;;;;;;;;;;;29.07;41.60;94077.34;4922923;29;7449;-60
2022/08/26 10:07:47;;;;;;;;;;;;;;;29.08;41.87;94076.78;4916478;29;7187;-60
2022/08/26 10:10:18;;;;;;;;;;;;;;;29.05;42.80;94066.81;4918839;29;7667;-60
2022/08/26 10:12:53;;;;;;;;;;;;;;;29.05;42.52;94061.28;4910676;29;9677;-60
2022/08/26 10:15:59;;;;;;;;;;;;;;;29.08;41.89;94064.97;4911394;29;7235;-60
2022/08/26 10:18:54;;;;;;;;;;;;;;;29.10;41.62;94052.06;4890882;29;7006;-60
2022/08/26 10:21:34;;;;;;;;;;;;;;;29.15;42.25;94050.44;4871923;29;8684;-60
2022/08/26 10:24:31;;;;;;;;;;;;;;;29.10;42.34;94060.38;4859193;29;7355;-60
2022/08/26 10:27:41;;;;;;;;;;;;;;;29.14;41.91;94043.44;4874359;29;7242;-60
2022/08/26 10:30:48;;;;;;;;;;;;;;;29.17;41.98;94047.19;4859904;29;7533;-61
2022/08/26 10:33:27;;;;;;;;;;;;;;;29.17;40.99;94038.88;4912788;29;7524;-60
2022/08/26 10:39:24;;;;;;;;;;;;;;;29.20;41.31;94037.78;4855760;29;7331;-61
2022/08/26 10:42:06;;;;;;;;;;;;;;;29.21;41.57;94036.50;4841686;29;7272;-61
2022/08/26 10:44:51;;;;;;;;;;;;;;;29.24;41.04;94035.41;4855363;29;7155;-60
2022/08/26 10:47:41;;;;;;;;;;;;;;;29.26;41.21;94035.59;4854602;29;9319;-60
2022/08/26 10:50:19;;;;;;;;;;;;;;;29.25;40.95;94034.88;4853813;29;7366;-60
2022/08/26 10:53:17;;;;;;;;;;;;;;;29.25;41.25;94026.56;4856140;29;7965;-60
2022/08/26 10:56:04;;;;;;;;;;;;;;;29.26;40.97;94030.78;4868277;29;9549;-60
2022/08/26 10:59:01;;;;;;;;;;;;;;;29.27;41.07;94026.00;4878834;29;7295;-60
2022/08/26 11:01:53;;;;;;;;;;;;;;;29.29;40.90;94020.66;4845153;29;7223;-60
2022/08/26 11:04:32;;;;;;;;;;;;;;;29.29;41.46;94026.94;4831262;29;7489;-60
2022/08/26 11:07:36;;;;;;;;;;;;;;;29.33;41.33;94021.06;4843086;29;7242;-60
2022/08/26 11:10:14;;;;;;;;;;;;;;;29.35;40.87;94015.72;4853018;29;8312;-60
2022/08/26 11:12:53;;;;;;;;;;;;;;;29.36;41.26;94017.94;4871561;29;7582;-60
2022/08/26 11:15:20;;;;;;;;;;;;;;;29.39;40.62;94022.38;4917480;28;6908;-61
2022/08/26 11:17:48;;;;;;;;;;;;;;;29.38;41.44;94026.47;4913936;29;7181;-60
2022/08/26 11:20:21;;;;;;;;;;;;;;;29.37;41.27;94013.88;4911932;29;7262;-59
2022/08/26 11:22:51;;;;;;;;;;;;;;;29.36;41.28;94022.75;4912914;29;8991;-61
2022/08/26 11:25:19;;;;;;;;;;;;;;;29.38;41.26;94020.16;4908519;29;7223;-61
2022/08/26 11:27:48;;;;;;;;;;;;;;;29.43;41.32;94022.78;4910966;29;7053;-61
2022/08/26 11:30:14;;;;;;;;;;;;;;;29.46;41.49;94021.69;4912121;29;6983;-61
2022/08/26 11:32:40;;;;;;;;;;;;;;;29.47;40.83;94022.44;4912715;29;7053;-61
2022/08/26 11:35:20;;;;;;;;;;;;;;;29.50;41.32;94024.09;4913990;29;7301;-61
2022/08/26 11:37:48;;;;;;;;;;;;;;;29.52;41.08;94013.97;4928130;28;7163;-61
2022/08/26 11:40:23;;;;;;;;;;;;;;;29.54;40.43;94022.47;4986648;28;7222;-61
2022/08/26 11:42:55;;;;;;;;;;;;;;;29.57;41.27;94017.88;4985620;28;7267;-61
2022/08/26 11:45:27;;;;;;;;;;;;;;;29.58;40.95;94013.81;4981845;28;7718;-61
2022/08/26 11:48:32;;;;;;;;;;;;;;;29.60;40.73;94003.66;5007253;28;7207;-61
2022/08/26 11:51:25;;;;;;;;;;;;;;;29.63;41.18;94007.38;4985113;28;8452;-61
2022/08/26 11:54:15;;;;;;;;;;;;;;;29.64;40.58;93995.00;4984056;28;7001;-61
2022/08/26 11:56:46;;;;;;;;;;;;;;;29.63;41.27;93991.47;4988772;28;7037;-61
2022/08/26 11:59:25;;;;;;;;;;;;;;;29.66;40.48;93987.63;4991364;28;7223;-61
2022/08/26 12:01:54;;;;;;;;;;;;;;;29.69;40.74;93988.53;4982239;28;7522;-61
2022/08/26 12:04:44;;;;;;;;;;;;;;;29.69;41.01;93985.75;4981625;28;7277;-60
2022/08/26 12:07:26;;;;;;;;;;;;;;;29.72;40.87;93981.91;4983375;28;9434;-61
2022/08/26 12:09:59;;;;;;;;;;;;;;;29.72;41.19;93974.34;4989191;28;9842;-61
2022/08/26 12:12:32;;;;;;;;;;;;;;;29.73;40.80;93977.88;4984207;28;7234;-61
2022/08/26 12:15:18;;;;;;;;;;;;;;;29.73;40.45;93978.59;4998367;28;9446;-61
2022/08/26 12:17:47;;;;;;;;;;;;;;;29.72;41.07;93977.13;4987811;28;7099;-61
2022/08/26 12:20:45;;;;;;;;;;;;;;;29.71;40.85;93978.41;5001903;28;9372;-61
2022/08/26 12:23:44;;;;;;;;;;;;;;;29.72;41.26;93970.81;4986346;28;9599;-61
2022/08/26 12:26:45;;;;;;;;;;;;;;;29.73;40.61;93983.41;4992172;28;7272;-61
2022/08/26 12:29:27;;;;;;;;;;;;;;;29.75;41.25;93980.84;5004709;28;7011;-61
2022/08/26 12:32:16;;;;;;;;;;;;;;;29.74;40.13;93973.81;4974563;28;6992;-60
2022/08/26 12:34:51;;;;;;;;;;;;;;;29.74;40.61;93977.34;5007853;28;7275;-61
2022/08/26 12:37:17;;;;;;;;;;;;;;;29.76;40.05;93971.22;4994873;28;7091;-61
2022/08/26 12:39:47;;;;;;;;;;;;;;;29.76;40.00;93971.97;4996975;28;7583;-61
2022/08/26 12:42:47;;;;;;;;;;;;;;;29.78;39.96;93974.94;4975762;28;7571;-61
2022/08/26 12:45:55;;;;;;;;;;;;;;;29.80;40.67;93968.84;4922030;29;7131;-61
2022/08/26 12:48:47;;;;;;;;;;;;;;;29.82;40.82;93960.72;4874622;29;9013;-61
2022/08/26 12:51:31;;;;;;;;;;;;;;;29.82;39.99;93965.53;4857237;29;7604;-61
2022/08/26 12:54:05;;;;;;;;;;;;;;;29.82;39.96;93952.41;4856008;29;9487;-61
2022/08/26 12:56:53;;;;;;;;;;;;;;;29.83;40.62;93970.53;4856908;29;7224;-60
2022/08/26 12:59:47;;;;;;;;;;;;;;;29.85;39.75;93967.94;4856038;29;9772;-61
2022/08/26 13:02:42;;;;;;;;;;;;;;;29.84;40.05;93966.44;4856651;29;8220;-61
2022/08/26 13:05:27;;;;;;;;;;;;;;;29.86;40.88;93957.59;4874737;29;9745;-61
2022/08/26 13:08:14;;;;;;;;;;;;;;;29.86;40.33;93952.81;4875673;29;9795;-61
2022/08/26 13:10:46;;;;;;;;;;;;;;;29.88;40.51;93949.47;4855483;29;7298;-61
2022/08/26 13:13:50;;;;;;;;;;;;;;;29.89;39.75;93951.69;4871038;29;7905;-61
2022/08/26 13:16:28;;;;;;;;;;;;;;;29.89;40.21;93945.41;4848251;29;7722;-60
2022/08/26 13:19:01;;;;;;;;;;;;;;;29.91;40.49;93949.09;4819575;29;7395;-61
2022/08/26 13:21:32;;;;;;;;;;;;;;;29.91;40.94;93943.56;4825107;29;7035;-61
2022/08/26 13:24:13;;;;;;;;;;;;;;;29.90;39.99;93942.09;4876901;29;7131;-61
2022/08/26 13:26:43;;;;;;;;;;;;;;;29.89;39.80;93937.06;4862857;29;7326;-61
2022/08/26 13:29:56;;;;;;;;;;;;;;;29.89;39.99;93950.94;4877261;29;7186;-61
2022/08/26 13:32:31;;;;;;;;;;;;;;;29.87;40.18;93943.19;4844004;29;7594;-61
2022/08/26 13:35:19;;;;;;;;;;;;;;;29.87;39.37;93948.72;4846569;29;7329;-61
2022/08/26 13:37:45;;;;;;;;;;;;;;;29.87;39.24;93942.44;4847490;29;8265;-61
2022/08/26 13:40:11;;;;;;;;;;;;;;;29.85;39.35;93937.44;4826526;29;6967;-61
2022/08/26 13:42:42;;;;;;;;;;;;;;;29.86;39.94;93930.63;4840091;29;7641;-61
2022/08/26 13:45:11;;;;;;;;;;;;;;;29.85;40.00;93931.91;4853561;29;7235;-61